Aérodrome :
LOGIN :

S'inscrire | Disclaimer

   EN    FR    IT 

 










Légende :    VFR   VFR Marginal   IFR   IFR Intensif   IFR Très Intensif
Visi : 
Plafond : 
>= 8 km
>= 3000ft
5 à 8 km
1000 à 3000 ft
1500m à 5 km
500 à 1000 ft
800 à 1500m
200 à 500 ft
< 800m
< 200 ft
Symboles :   Orages  Brouillard  Fortes neiges  Fortes précipitations  Vent > 20 kt
SIGMETs :   Divers  Orages  Givrage  Turbulence  Onde Orograph.  Cendres Volcan.






- Altitude de l'aérodrome : 7 ft
- Code IATA : XHE


LFTH - Hyeres

DERNIER METAR :
  • 272100Z AUTO 25012KT CAVOK 14/10 Q1010 TEMPO 30020G30KT

METARs EXPIRÉS :
  • 272030Z AUTO 25017KT CAVOK 14/10 Q1010 NOSIG
  • 272000Z AUTO 25018G29KT CAVOK 14/10 Q1009 BECMG 28010KT
  • 271930Z AUTO 25021KT 9999 FEW047 SCT070 14/10 Q1009 BECMG 28010KT
  • 271900Z AUTO 26018G31KT 230V290 9999 FEW020 BKN052 OVC068 14/10 Q1009 BECMG 28010KT
  • 271830Z AUTO 26017KT 9999 BKN027 BKN043 BKN049 14/10 Q1010 NOSIG

TAF TAF LFTH
Valide du 27 à 21h jusqu'au 28 à 21h UTC


272000Z 2721/2821 28010KT CAVOK
PROB40
TEMPO 2721/2805 30020G30KT
BECMG 2808/2810 34008KT



MET'MAP, la Météo Aéronautique d'un coup d'oeil ! - Copyright ORBIFLY Décembre 2007 - Disclaimer

ORBIFLY MET'MAP TEAM :

Programmation & Développement : Alexandra Zaïnal
Sur une idée originale de : Baudouin d'Aumeries
Assistance à la programmation : Marc-Olivier Méhu
Soutien technique & logistique : Manuel Goepfert

Contact : metmap@orbifly.com




SOURCES & CREDITS :

   NOAA